sensor_id;sensor_type;location;lat;lon;timestamp;P1;durP1;ratioP1;P2;durP2;ratioP2
8540;SDS011;4308;51.294;6.590;2022-12-29T00:01:11;1.03;;;0.90;;
8540;SDS011;4308;51.294;6.590;2022-12-29T00:03:38;1.00;;;1.00;;
8540;SDS011;4308;51.294;6.590;2022-12-29T00:06:06;0.80;;;0.80;;
8540;SDS011;4308;51.294;6.590;2022-12-29T00:08:34;0.80;;;0.80;;
8540;SDS011;4308;51.294;6.590;2022-12-29T00:11:02;0.80;;;0.80;;
8540;SDS011;4308;51.294;6.590;2022-12-29T00:13:29;0.80;;;0.80;;
8540;SDS011;4308;51.294;6.590;2022-12-29T00:15:57;0.80;;;0.80;;
8540;SDS011;4308;51.294;6.590;2022-12-29T00:18:26;0.63;;;0.63;;
8540;SDS011;4308;51.294;6.590;2022-12-29T00:20:54;0.70;;;0.70;;
8540;SDS011;4308;51.294;6.590;2022-12-29T00:23:22;0.80;;;0.80;;
8540;SDS011;4308;51.294;6.590;2022-12-29T00:25:50;0.80;;;0.80;;
8540;SDS011;4308;51.294;6.590;2022-12-29T00:28:18;1.60;;;0.70;;
8540;SDS011;4308;51.294;6.590;2022-12-29T00:30:45;1.03;;;0.60;;
8540;SDS011;4308;51.294;6.590;2022-12-29T00:33:14;0.70;;;0.70;;
8540;SDS011;4308;51.294;6.590;2022-12-29T00:36:03;1.40;;;0.70;;
8540;SDS011;4308;51.294;6.590;2022-12-29T00:38:33;0.90;;;0.90;;
8540;SDS011;4308;51.294;6.590;2022-12-29T00:41:03;0.93;;;0.90;;
8540;SDS011;4308;51.294;6.590;2022-12-29T00:43:30;0.77;;;0.77;;
8540;SDS011;4308;51.294;6.590;2022-12-29T00:45:58;0.77;;;0.77;;
8540;SDS011;4308;51.294;6.590;2022-12-29T00:48:26;0.80;;;0.80;;
8540;SDS011;4308;51.294;6.590;2022-12-29T00:50:55;0.70;;;0.70;;
8540;SDS011;4308;51.294;6.590;2022-12-29T00:53:23;1.40;;;0.63;;
8540;SDS011;4308;51.294;6.590;2022-12-29T00:55:51;0.70;;;0.70;;
8540;SDS011;4308;51.294;6.590;2022-12-29T00:58:18;0.63;;;0.63;;
8540;SDS011;4308;51.294;6.590;2022-12-29T01:00:46;1.50;;;0.70;;
8540;SDS011;4308;51.294;6.590;2022-12-29T01:03:14;0.90;;;0.57;;
8540;SDS011;4308;51.294;6.590;2022-12-29T01:05:42;0.60;;;0.60;;
8540;SDS011;4308;51.294;6.590;2022-12-29T01:08:10;0.70;;;0.70;;
8540;SDS011;4308;51.294;6.590;2022-12-29T01:10:37;0.83;;;0.83;;
8540;SDS011;4308;51.294;6.590;2022-12-29T01:13:05;0.60;;;0.60;;
8540;SDS011;4308;51.294;6.590;2022-12-29T01:15:33;0.60;;;0.60;;
8540;SDS011;4308;51.294;6.590;2022-12-29T01:18:00;0.53;;;0.53;;
8540;SDS011;4308;51.294;6.590;2022-12-29T01:20:28;0.80;;;0.80;;
8540;SDS011;4308;51.294;6.590;2022-12-29T01:22:56;0.70;;;0.70;;
8540;SDS011;4308;51.294;6.590;2022-12-29T01:25:23;0.67;;;0.60;;
8540;SDS011;4308;51.294;6.590;2022-12-29T01:27:51;1.07;;;0.57;;
8540;SDS011;4308;51.294;6.590;2022-12-29T01:30:19;0.60;;;0.60;;
8540;SDS011;4308;51.294;6.590;2022-12-29T01:32:46;0.57;;;0.57;;
8540;SDS011;4308;51.294;6.590;2022-12-29T01:35:14;1.40;;;0.53;;
8540;SDS011;4308;51.294;6.590;2022-12-29T01:37:43;0.60;;;0.60;;
8540;SDS011;4308;51.294;6.590;2022-12-29T01:40:11;0.60;;;0.60;;
8540;SDS011;4308;51.294;6.590;2022-12-29T01:42:39;1.30;;;0.50;;
8540;SDS011;4308;51.294;6.590;2022-12-29T01:47:39;0.90;;;0.90;;
8540;SDS011;4308;51.294;6.590;2022-12-29T01:50:17;2.00;;;0.70;;
8540;SDS011;4308;51.294;6.590;2022-12-29T01:52:50;0.60;;;0.60;;
8540;SDS011;4308;51.294;6.590;2022-12-29T01:55:18;0.70;;;0.70;;
8540;SDS011;4308;51.294;6.590;2022-12-29T01:57:46;0.93;;;0.70;;
8540;SDS011;4308;51.294;6.590;2022-12-29T02:00:16;0.73;;;0.60;;
8540;SDS011;4308;51.294;6.590;2022-12-29T02:02:48;1.93;;;0.80;;
8540;SDS011;4308;51.294;6.590;2022-12-29T02:05:23;1.90;;;0.77;;
8540;SDS011;4308;51.294;6.590;2022-12-29T02:07:51;1.13;;;0.50;;
8540;SDS011;4308;51.294;6.590;2022-12-29T02:10:23;0.60;;;0.60;;
8540;SDS011;4308;51.294;6.590;2022-12-29T02:12:51;1.73;;;0.80;;
8540;SDS011;4308;51.294;6.590;2022-12-29T02:15:21;0.63;;;0.60;;
8540;SDS011;4308;51.294;6.590;2022-12-29T02:18:03;2.10;;;0.97;;
8540;SDS011;4308;51.294;6.590;2022-12-29T02:20:55;1.23;;;0.80;;
8540;SDS011;4308;51.294;6.590;2022-12-29T02:32:03;1.80;;;0.90;;
8540;SDS011;4308;51.294;6.590;2022-12-29T02:37:11;0.80;;;0.80;;
8540;SDS011;4308;51.294;6.590;2022-12-29T02:39:48;3.70;;;0.90;;
8540;SDS011;4308;51.294;6.590;2022-12-29T02:45:20;1.70;;;0.80;;
8540;SDS011;4308;51.294;6.590;2022-12-29T02:47:48;3.27;;;0.80;;
8540;SDS011;4308;51.294;6.590;2022-12-29T02:50:25;1.20;;;0.80;;
8540;SDS011;4308;51.294;6.590;2022-12-29T02:52:56;2.00;;;0.87;;
8540;SDS011;4308;51.294;6.590;2022-12-29T02:55:24;0.90;;;0.90;;
8540;SDS011;4308;51.294;6.590;2022-12-29T03:00:44;1.10;;;1.00;;
8540;SDS011;4308;51.294;6.590;2022-12-29T03:03:28;2.40;;;0.90;;
8540;SDS011;4308;51.294;6.590;2022-12-29T03:08:44;2.03;;;1.17;;
8540;SDS011;4308;51.294;6.590;2022-12-29T03:11:15;2.80;;;1.00;;
8540;SDS011;4308;51.294;6.590;2022-12-29T03:13:47;0.87;;;0.70;;
8540;SDS011;4308;51.294;6.590;2022-12-29T03:16:21;1.97;;;0.83;;
8540;SDS011;4308;51.294;6.590;2022-12-29T03:21:35;0.80;;;0.80;;
8540;SDS011;4308;51.294;6.590;2022-12-29T03:24:03;2.20;;;1.00;;
8540;SDS011;4308;51.294;6.590;2022-12-29T03:26:31;2.20;;;0.90;;
8540;SDS011;4308;51.294;6.590;2022-12-29T03:28:59;1.50;;;0.80;;
8540;SDS011;4308;51.294;6.590;2022-12-29T03:31:26;3.27;;;0.90;;
8540;SDS011;4308;51.294;6.590;2022-12-29T03:33:54;1.40;;;0.80;;
8540;SDS011;4308;51.294;6.590;2022-12-29T03:36:26;2.00;;;1.00;;
8540;SDS011;4308;51.294;6.590;2022-12-29T03:38:58;3.03;;;0.90;;
8540;SDS011;4308;51.294;6.590;2022-12-29T03:41:28;1.70;;;0.90;;
8540;SDS011;4308;51.294;6.590;2022-12-29T03:43:57;0.70;;;0.70;;
8540;SDS011;4308;51.294;6.590;2022-12-29T03:46:25;1.27;;;0.90;;
8540;SDS011;4308;51.294;6.590;2022-12-29T03:48:52;1.13;;;0.90;;
8540;SDS011;4308;51.294;6.590;2022-12-29T03:51:20;1.03;;;0.93;;
8540;SDS011;4308;51.294;6.590;2022-12-29T03:53:48;0.70;;;0.70;;
8540;SDS011;4308;51.294;6.590;2022-12-29T03:56:15;1.40;;;0.80;;
8540;SDS011;4308;51.294;6.590;2022-12-29T03:58:44;1.67;;;1.00;;
8540;SDS011;4308;51.294;6.590;2022-12-29T04:01:11;1.30;;;0.77;;
8540;SDS011;4308;51.294;6.590;2022-12-29T04:03:40;0.60;;;0.60;;
8540;SDS011;4308;51.294;6.590;2022-12-29T04:06:07;1.87;;;0.60;;
8540;SDS011;4308;51.294;6.590;2022-12-29T04:08:35;1.47;;;0.80;;
8540;SDS011;4308;51.294;6.590;2022-12-29T04:11:03;0.73;;;0.73;;
8540;SDS011;4308;51.294;6.590;2022-12-29T04:13:31;1.60;;;0.70;;
8540;SDS011;4308;51.294;6.590;2022-12-29T04:15:58;1.00;;;0.80;;
8540;SDS011;4308;51.294;6.590;2022-12-29T04:18:26;1.37;;;0.70;;
8540;SDS011;4308;51.294;6.590;2022-12-29T04:20:54;1.50;;;0.67;;
8540;SDS011;4308;51.294;6.590;2022-12-29T04:23:21;1.73;;;1.00;;
8540;SDS011;4308;51.294;6.590;2022-12-29T04:25:49;1.17;;;0.80;;
8540;SDS011;4308;51.294;6.590;2022-12-29T04:28:17;1.80;;;0.90;;
8540;SDS011;4308;51.294;6.590;2022-12-29T04:30:45;3.70;;;0.73;;
8540;SDS011;4308;51.294;6.590;2022-12-29T04:33:13;1.10;;;0.73;;
8540;SDS011;4308;51.294;6.590;2022-12-29T04:35:41;0.93;;;0.70;;
8540;SDS011;4308;51.294;6.590;2022-12-29T04:38:09;1.60;;;0.80;;
8540;SDS011;4308;51.294;6.590;2022-12-29T04:40:40;0.60;;;0.57;;
8540;SDS011;4308;51.294;6.590;2022-12-29T04:43:08;1.33;;;0.77;;
8540;SDS011;4308;51.294;6.590;2022-12-29T04:45:36;1.60;;;0.73;;
8540;SDS011;4308;51.294;6.590;2022-12-29T04:48:04;1.17;;;0.87;;
8540;SDS011;4308;51.294;6.590;2022-12-29T04:50:31;0.93;;;0.73;;
8540;SDS011;4308;51.294;6.590;2022-12-29T04:52:59;1.00;;;0.90;;
8540;SDS011;4308;51.294;6.590;2022-12-29T04:55:27;1.20;;;0.70;;
8540;SDS011;4308;51.294;6.590;2022-12-29T04:57:55;1.47;;;0.80;;
8540;SDS011;4308;51.294;6.590;2022-12-29T05:00:22;1.80;;;0.83;;
8540;SDS011;4308;51.294;6.590;2022-12-29T05:02:50;0.70;;;0.70;;
8540;SDS011;4308;51.294;6.590;2022-12-29T05:05:18;1.17;;;0.80;;
8540;SDS011;4308;51.294;6.590;2022-12-29T05:07:46;1.67;;;1.23;;
8540;SDS011;4308;51.294;6.590;2022-12-29T05:10:13;2.37;;;1.00;;
8540;SDS011;4308;51.294;6.590;2022-12-29T05:12:41;2.37;;;0.80;;
8540;SDS011;4308;51.294;6.590;2022-12-29T05:15:09;1.93;;;0.80;;
8540;SDS011;4308;51.294;6.590;2022-12-29T05:17:37;1.00;;;0.90;;
8540;SDS011;4308;51.294;6.590;2022-12-29T05:20:05;2.27;;;0.60;;
8540;SDS011;4308;51.294;6.590;2022-12-29T05:22:33;1.17;;;0.73;;
8540;SDS011;4308;51.294;6.590;2022-12-29T05:25:01;1.37;;;1.10;;
8540;SDS011;4308;51.294;6.590;2022-12-29T05:27:29;2.00;;;0.90;;
8540;SDS011;4308;51.294;6.590;2022-12-29T05:29:57;2.23;;;1.10;;
8540;SDS011;4308;51.294;6.590;2022-12-29T05:32:24;2.60;;;0.87;;
8540;SDS011;4308;51.294;6.590;2022-12-29T05:34:52;1.00;;;0.90;;
8540;SDS011;4308;51.294;6.590;2022-12-29T05:37:20;1.00;;;0.90;;
8540;SDS011;4308;51.294;6.590;2022-12-29T05:39:47;2.67;;;0.90;;
8540;SDS011;4308;51.294;6.590;2022-12-29T05:42:15;1.53;;;1.00;;
8540;SDS011;4308;51.294;6.590;2022-12-29T05:44:44;2.03;;;0.90;;
8540;SDS011;4308;51.294;6.590;2022-12-29T05:47:11;1.20;;;0.90;;
8540;SDS011;4308;51.294;6.590;2022-12-29T05:49:40;2.47;;;0.80;;
8540;SDS011;4308;51.294;6.590;2022-12-29T05:52:08;1.13;;;0.83;;
8540;SDS011;4308;51.294;6.590;2022-12-29T05:54:35;2.00;;;0.90;;
8540;SDS011;4308;51.294;6.590;2022-12-29T05:57:03;3.33;;;1.10;;
8540;SDS011;4308;51.294;6.590;2022-12-29T05:59:30;2.63;;;0.80;;
8540;SDS011;4308;51.294;6.590;2022-12-29T06:01:58;1.23;;;0.90;;
8540;SDS011;4308;51.294;6.590;2022-12-29T06:04:26;2.67;;;1.10;;
8540;SDS011;4308;51.294;6.590;2022-12-29T06:06:54;1.67;;;0.87;;
8540;SDS011;4308;51.294;6.590;2022-12-29T06:09:21;4.43;;;1.20;;
8540;SDS011;4308;51.294;6.590;2022-12-29T06:11:49;1.67;;;0.90;;
8540;SDS011;4308;51.294;6.590;2022-12-29T06:14:17;2.40;;;0.90;;
8540;SDS011;4308;51.294;6.590;2022-12-29T06:16:45;2.03;;;1.20;;
8540;SDS011;4308;51.294;6.590;2022-12-29T06:19:12;1.60;;;0.80;;
8540;SDS011;4308;51.294;6.590;2022-12-29T06:21:40;1.13;;;0.80;;
8540;SDS011;4308;51.294;6.590;2022-12-29T06:24:08;3.80;;;1.13;;
8540;SDS011;4308;51.294;6.590;2022-12-29T06:26:35;2.30;;;0.90;;
8540;SDS011;4308;51.294;6.590;2022-12-29T06:29:03;1.93;;;0.80;;
8540;SDS011;4308;51.294;6.590;2022-12-29T06:31:31;1.00;;;0.90;;
8540;SDS011;4308;51.294;6.590;2022-12-29T06:33:59;3.30;;;1.03;;
8540;SDS011;4308;51.294;6.590;2022-12-29T06:36:34;4.63;;;1.00;;
8540;SDS011;4308;51.294;6.590;2022-12-29T06:39:01;3.10;;;0.87;;
8540;SDS011;4308;51.294;6.590;2022-12-29T06:41:29;4.13;;;1.10;;
8540;SDS011;4308;51.294;6.590;2022-12-29T06:43:58;1.60;;;0.90;;
8540;SDS011;4308;51.294;6.590;2022-12-29T06:46:26;3.03;;;0.93;;
8540;SDS011;4308;51.294;6.590;2022-12-29T06:48:53;1.33;;;1.13;;
8540;SDS011;4308;51.294;6.590;2022-12-29T06:51:21;1.43;;;0.87;;
8540;SDS011;4308;51.294;6.590;2022-12-29T06:53:49;4.17;;;1.10;;
8540;SDS011;4308;51.294;6.590;2022-12-29T06:56:16;3.33;;;0.97;;
8540;SDS011;4308;51.294;6.590;2022-12-29T06:58:44;5.13;;;1.73;;
8540;SDS011;4308;51.294;6.590;2022-12-29T07:01:12;2.57;;;0.93;;
8540;SDS011;4308;51.294;6.590;2022-12-29T07:03:41;1.30;;;0.90;;
8540;SDS011;4308;51.294;6.590;2022-12-29T07:06:08;1.50;;;1.00;;
8540;SDS011;4308;51.294;6.590;2022-12-29T07:08:36;2.23;;;0.97;;
8540;SDS011;4308;51.294;6.590;2022-12-29T07:11:04;2.23;;;0.83;;
8540;SDS011;4308;51.294;6.590;2022-12-29T07:13:32;2.07;;;0.97;;
8540;SDS011;4308;51.294;6.590;2022-12-29T07:16:04;3.40;;;0.93;;
8540;SDS011;4308;51.294;6.590;2022-12-29T07:18:31;1.70;;;1.00;;
8540;SDS011;4308;51.294;6.590;2022-12-29T07:20:59;2.67;;;1.40;;
8540;SDS011;4308;51.294;6.590;2022-12-29T07:23:27;4.90;;;1.80;;
8540;SDS011;4308;51.294;6.590;2022-12-29T07:26:02;6.73;;;1.27;;
8540;SDS011;4308;51.294;6.590;2022-12-29T07:28:30;3.90;;;1.27;;
8540;SDS011;4308;51.294;6.590;2022-12-29T07:30:58;2.83;;;0.80;;
8540;SDS011;4308;51.294;6.590;2022-12-29T07:33:28;3.37;;;1.07;;
8540;SDS011;4308;51.294;6.590;2022-12-29T07:35:56;4.73;;;1.60;;
8540;SDS011;4308;51.294;6.590;2022-12-29T07:38:23;2.17;;;0.90;;
8540;SDS011;4308;51.294;6.590;2022-12-29T07:40:51;2.60;;;0.90;;
8540;SDS011;4308;51.294;6.590;2022-12-29T07:43:19;5.00;;;1.40;;
8540;SDS011;4308;51.294;6.590;2022-12-29T07:45:47;5.00;;;1.30;;
8540;SDS011;4308;51.294;6.590;2022-12-29T07:48:15;4.30;;;1.20;;
8540;SDS011;4308;51.294;6.590;2022-12-29T07:50:43;1.70;;;1.00;;
8540;SDS011;4308;51.294;6.590;2022-12-29T07:53:10;5.40;;;1.23;;
8540;SDS011;4308;51.294;6.590;2022-12-29T07:55:38;3.07;;;1.03;;
8540;SDS011;4308;51.294;6.590;2022-12-29T07:58:06;5.33;;;1.60;;
8540;SDS011;4308;51.294;6.590;2022-12-29T08:00:33;5.73;;;1.20;;
8540;SDS011;4308;51.294;6.590;2022-12-29T08:03:01;5.80;;;1.40;;
8540;SDS011;4308;51.294;6.590;2022-12-29T08:05:29;4.13;;;1.00;;
8540;SDS011;4308;51.294;6.590;2022-12-29T08:07:57;6.30;;;1.40;;
8540;SDS011;4308;51.294;6.590;2022-12-29T08:10:25;2.30;;;0.97;;
8540;SDS011;4308;51.294;6.590;2022-12-29T08:12:53;2.67;;;1.47;;
8540;SDS011;4308;51.294;6.590;2022-12-29T08:15:20;2.17;;;1.10;;
8540;SDS011;4308;51.294;6.590;2022-12-29T08:17:58;7.73;;;1.30;;
8540;SDS011;4308;51.294;6.590;2022-12-29T08:20:25;3.53;;;1.13;;
8540;SDS011;4308;51.294;6.590;2022-12-29T08:22:53;5.03;;;1.37;;
8540;SDS011;4308;51.294;6.590;2022-12-29T08:25:20;7.20;;;1.80;;
8540;SDS011;4308;51.294;6.590;2022-12-29T08:27:50;3.23;;;1.40;;
8540;SDS011;4308;51.294;6.590;2022-12-29T08:30:17;4.07;;;1.30;;
8540;SDS011;4308;51.294;6.590;2022-12-29T08:32:45;5.10;;;1.43;;
8540;SDS011;4308;51.294;6.590;2022-12-29T08:35:12;5.40;;;1.90;;
8540;SDS011;4308;51.294;6.590;2022-12-29T08:37:40;3.20;;;1.20;;
8540;SDS011;4308;51.294;6.590;2022-12-29T08:40:08;4.00;;;1.37;;
8540;SDS011;4308;51.294;6.590;2022-12-29T08:42:36;4.97;;;1.20;;
8540;SDS011;4308;51.294;6.590;2022-12-29T08:45:04;5.23;;;1.37;;
8540;SDS011;4308;51.294;6.590;2022-12-29T08:47:31;6.50;;;1.60;;
8540;SDS011;4308;51.294;6.590;2022-12-29T08:49:59;4.40;;;1.57;;
8540;SDS011;4308;51.294;6.590;2022-12-29T08:52:27;6.93;;;1.70;;
8540;SDS011;4308;51.294;6.590;2022-12-29T08:54:54;7.37;;;1.40;;
8540;SDS011;4308;51.294;6.590;2022-12-29T08:57:22;7.60;;;1.70;;
8540;SDS011;4308;51.294;6.590;2022-12-29T08:59:50;4.37;;;1.70;;
8540;SDS011;4308;51.294;6.590;2022-12-29T09:02:17;11.20;;;2.17;;
8540;SDS011;4308;51.294;6.590;2022-12-29T09:04:50;5.73;;;1.40;;
8540;SDS011;4308;51.294;6.590;2022-12-29T09:07:18;5.63;;;1.53;;
8540;SDS011;4308;51.294;6.590;2022-12-29T09:09:46;4.37;;;1.30;;
8540;SDS011;4308;51.294;6.590;2022-12-29T09:12:13;6.27;;;1.67;;
8540;SDS011;4308;51.294;6.590;2022-12-29T09:14:41;2.13;;;1.33;;
8540;SDS011;4308;51.294;6.590;2022-12-29T09:17:09;4.23;;;1.40;;
8540;SDS011;4308;51.294;6.590;2022-12-29T09:19:37;7.70;;;1.37;;
8540;SDS011;4308;51.294;6.590;2022-12-29T09:22:05;5.17;;;1.47;;
8540;SDS011;4308;51.294;6.590;2022-12-29T09:24:32;4.10;;;1.53;;
8540;SDS011;4308;51.294;6.590;2022-12-29T09:27:00;6.00;;;1.60;;
8540;SDS011;4308;51.294;6.590;2022-12-29T09:29:27;4.97;;;1.27;;
8540;SDS011;4308;51.294;6.590;2022-12-29T09:31:55;4.30;;;1.50;;
8540;SDS011;4308;51.294;6.590;2022-12-29T09:34:23;5.07;;;1.90;;
8540;SDS011;4308;51.294;6.590;2022-12-29T09:36:50;6.33;;;1.30;;
8540;SDS011;4308;51.294;6.590;2022-12-29T09:39:18;6.93;;;2.00;;
8540;SDS011;4308;51.294;6.590;2022-12-29T09:41:54;6.90;;;1.70;;
8540;SDS011;4308;51.294;6.590;2022-12-29T09:44:42;5.53;;;1.70;;
8540;SDS011;4308;51.294;6.590;2022-12-29T09:47:13;5.13;;;1.40;;
8540;SDS011;4308;51.294;6.590;2022-12-29T09:52:19;2.93;;;1.40;;
8540;SDS011;4308;51.294;6.590;2022-12-29T09:54:52;5.93;;;1.77;;
8540;SDS011;4308;51.294;6.590;2022-12-29T09:57:32;6.00;;;1.30;;
8540;SDS011;4308;51.294;6.590;2022-12-29T10:00:18;8.80;;;1.93;;
8540;SDS011;4308;51.294;6.590;2022-12-29T10:02:47;7.80;;;1.50;;
8540;SDS011;4308;51.294;6.590;2022-12-29T10:07:56;4.33;;;1.47;;
8540;SDS011;4308;51.294;6.590;2022-12-29T10:18:20;6.50;;;1.60;;
8540;SDS011;4308;51.294;6.590;2022-12-29T10:20:58;6.60;;;2.00;;
8540;SDS011;4308;51.294;6.590;2022-12-29T10:25:56;6.50;;;1.87;;
8540;SDS011;4308;51.294;6.590;2022-12-29T10:31:22;6.53;;;1.73;;
8540;SDS011;4308;51.294;6.590;2022-12-29T10:33:51;3.27;;;1.40;;
8540;SDS011;4308;51.294;6.590;2022-12-29T10:36:24;7.53;;;1.30;;
8540;SDS011;4308;51.294;6.590;2022-12-29T10:39:14;4.03;;;1.50;;
8540;SDS011;4308;51.294;6.590;2022-12-29T10:41:45;5.40;;;1.17;;
8540;SDS011;4308;51.294;6.590;2022-12-29T10:44:15;7.43;;;1.43;;
8540;SDS011;4308;51.294;6.590;2022-12-29T10:46:43;3.50;;;1.43;;
8540;SDS011;4308;51.294;6.590;2022-12-29T10:49:15;2.93;;;0.93;;
8540;SDS011;4308;51.294;6.590;2022-12-29T10:51:48;5.17;;;1.50;;
8540;SDS011;4308;51.294;6.590;2022-12-29T10:54:21;5.70;;;1.67;;
8540;SDS011;4308;51.294;6.590;2022-12-29T10:57:01;4.53;;;1.50;;
8540;SDS011;4308;51.294;6.590;2022-12-29T10:59:30;4.47;;;1.63;;
8540;SDS011;4308;51.294;6.590;2022-12-29T11:02:00;5.53;;;1.50;;
8540;SDS011;4308;51.294;6.590;2022-12-29T11:07:19;5.93;;;1.90;;
8540;SDS011;4308;51.294;6.590;2022-12-29T11:09:53;7.33;;;1.50;;
8540;SDS011;4308;51.294;6.590;2022-12-29T11:15:00;7.23;;;1.63;;
8540;SDS011;4308;51.294;6.590;2022-12-29T11:17:28;4.23;;;1.57;;
8540;SDS011;4308;51.294;6.590;2022-12-29T11:19:55;4.77;;;1.50;;
8540;SDS011;4308;51.294;6.590;2022-12-29T11:22:24;4.33;;;1.80;;
8540;SDS011;4308;51.294;6.590;2022-12-29T11:24:53;3.20;;;1.23;;
8540;SDS011;4308;51.294;6.590;2022-12-29T11:27:22;6.13;;;1.43;;
8540;SDS011;4308;51.294;6.590;2022-12-29T11:29:51;9.20;;;2.47;;
8540;SDS011;4308;51.294;6.590;2022-12-29T11:32:19;7.27;;;1.90;;
8540;SDS011;4308;51.294;6.590;2022-12-29T11:34:57;3.63;;;1.53;;
8540;SDS011;4308;51.294;6.590;2022-12-29T11:40:58;5.53;;;1.60;;
8540;SDS011;4308;51.294;6.590;2022-12-29T11:43:30;6.10;;;1.87;;
8540;SDS011;4308;51.294;6.590;2022-12-29T11:45:58;6.93;;;1.63;;
8540;SDS011;4308;51.294;6.590;2022-12-29T11:48:27;6.70;;;1.57;;
8540;SDS011;4308;51.294;6.590;2022-12-29T11:50:59;3.77;;;2.17;;
8540;SDS011;4308;51.294;6.590;2022-12-29T11:53:28;8.17;;;2.07;;
8540;SDS011;4308;51.294;6.590;2022-12-29T11:56:00;7.43;;;1.60;;
8540;SDS011;4308;51.294;6.590;2022-12-29T11:58:29;4.33;;;1.40;;
8540;SDS011;4308;51.294;6.590;2022-12-29T12:01:05;5.03;;;1.60;;
8540;SDS011;4308;51.294;6.590;2022-12-29T12:03:35;5.87;;;1.43;;
8540;SDS011;4308;51.294;6.590;2022-12-29T12:06:04;4.17;;;1.57;;
8540;SDS011;4308;51.294;6.590;2022-12-29T12:08:35;6.40;;;1.50;;
8540;SDS011;4308;51.294;6.590;2022-12-29T12:11:09;4.00;;;1.27;;
8540;SDS011;4308;51.294;6.590;2022-12-29T12:13:53;7.30;;;1.70;;
8540;SDS011;4308;51.294;6.590;2022-12-29T12:16:24;7.57;;;2.77;;
8540;SDS011;4308;51.294;6.590;2022-12-29T12:19:06;7.90;;;1.47;;
8540;SDS011;4308;51.294;6.590;2022-12-29T12:21:39;6.13;;;1.50;;
8540;SDS011;4308;51.294;6.590;2022-12-29T12:35:05;8.27;;;1.83;;
8540;SDS011;4308;51.294;6.590;2022-12-29T12:40:23;5.53;;;1.77;;
8540;SDS011;4308;51.294;6.590;2022-12-29T12:45:30;7.67;;;1.63;;
8540;SDS011;4308;51.294;6.590;2022-12-29T12:50:48;3.43;;;1.63;;
8540;SDS011;4308;51.294;6.590;2022-12-29T12:53:24;6.07;;;1.60;;
8540;SDS011;4308;51.294;6.590;2022-12-29T12:58:30;5.77;;;1.60;;
8540;SDS011;4308;51.294;6.590;2022-12-29T13:06:12;7.80;;;1.57;;
8540;SDS011;4308;51.294;6.590;2022-12-29T13:08:52;5.80;;;1.87;;
8540;SDS011;4308;51.294;6.590;2022-12-29T13:25:02;3.67;;;1.30;;
8540;SDS011;4308;51.294;6.590;2022-12-29T13:27:37;6.47;;;1.50;;
8540;SDS011;4308;51.294;6.590;2022-12-29T13:32:42;8.40;;;1.40;;
8540;SDS011;4308;51.294;6.590;2022-12-29T13:38:00;4.47;;;1.33;;
8540;SDS011;4308;51.294;6.590;2022-12-29T13:40:31;6.03;;;2.00;;
8540;SDS011;4308;51.294;6.590;2022-12-29T13:43:00;6.20;;;1.50;;
8540;SDS011;4308;51.294;6.590;2022-12-29T13:45:29;10.10;;;1.90;;
8540;SDS011;4308;51.294;6.590;2022-12-29T13:50:36;5.93;;;1.63;;
8540;SDS011;4308;51.294;6.590;2022-12-29T13:55:56;3.73;;;1.43;;
8540;SDS011;4308;51.294;6.590;2022-12-29T13:58:31;5.10;;;1.60;;
8540;SDS011;4308;51.294;6.590;2022-12-29T14:03:46;5.60;;;1.80;;
8540;SDS011;4308;51.294;6.590;2022-12-29T14:06:22;4.93;;;1.83;;
8540;SDS011;4308;51.294;6.590;2022-12-29T14:09:00;5.47;;;1.90;;
8540;SDS011;4308;51.294;6.590;2022-12-29T14:13:58;8.23;;;1.43;;
8540;SDS011;4308;51.294;6.590;2022-12-29T14:16:31;6.87;;;1.83;;
8540;SDS011;4308;51.294;6.590;2022-12-29T14:22:05;7.03;;;1.50;;
8540;SDS011;4308;51.294;6.590;2022-12-29T14:24:49;3.50;;;1.50;;
8540;SDS011;4308;51.294;6.590;2022-12-29T14:29:45;3.23;;;1.60;;
8540;SDS011;4308;51.294;6.590;2022-12-29T14:34:48;4.07;;;1.17;;
8540;SDS011;4308;51.294;6.590;2022-12-29T14:39:48;6.87;;;1.77;;
8540;SDS011;4308;51.294;6.590;2022-12-29T14:42:19;7.20;;;1.30;;
8540;SDS011;4308;51.294;6.590;2022-12-29T14:44:48;4.63;;;1.57;;
8540;SDS011;4308;51.294;6.590;2022-12-29T14:47:39;5.10;;;1.43;;
8540;SDS011;4308;51.294;6.590;2022-12-29T14:58:28;6.90;;;1.60;;
8540;SDS011;4308;51.294;6.590;2022-12-29T15:00:57;5.47;;;1.40;;
8540;SDS011;4308;51.294;6.590;2022-12-29T15:03:38;7.70;;;2.13;;
8540;SDS011;4308;51.294;6.590;2022-12-29T15:06:28;7.07;;;1.80;;
8540;SDS011;4308;51.294;6.590;2022-12-29T15:11:29;5.77;;;1.60;;
8540;SDS011;4308;51.294;6.590;2022-12-29T15:13:58;7.27;;;2.00;;
8540;SDS011;4308;51.294;6.590;2022-12-29T15:16:30;5.23;;;1.93;;
8540;SDS011;4308;51.294;6.590;2022-12-29T15:18:58;6.03;;;1.50;;
8540;SDS011;4308;51.294;6.590;2022-12-29T15:21:27;4.83;;;1.40;;
8540;SDS011;4308;51.294;6.590;2022-12-29T15:23:56;5.17;;;1.53;;
8540;SDS011;4308;51.294;6.590;2022-12-29T15:26:35;4.60;;;1.30;;
8540;SDS011;4308;51.294;6.590;2022-12-29T15:29:04;7.37;;;1.67;;
8540;SDS011;4308;51.294;6.590;2022-12-29T15:31:31;6.83;;;1.83;;
8540;SDS011;4308;51.294;6.590;2022-12-29T15:34:08;13.97;;;1.90;;
8540;SDS011;4308;51.294;6.590;2022-12-29T15:36:39;4.30;;;2.00;;
8540;SDS011;4308;51.294;6.590;2022-12-29T15:39:20;6.47;;;1.70;;
8540;SDS011;4308;51.294;6.590;2022-12-29T15:41:49;9.23;;;1.87;;
8540;SDS011;4308;51.294;6.590;2022-12-29T15:44:20;9.13;;;1.73;;
8540;SDS011;4308;51.294;6.590;2022-12-29T15:46:51;6.03;;;1.73;;
8540;SDS011;4308;51.294;6.590;2022-12-29T15:49:18;6.53;;;1.57;;
8540;SDS011;4308;51.294;6.590;2022-12-29T15:51:51;6.77;;;1.67;;
8540;SDS011;4308;51.294;6.590;2022-12-29T15:54:20;6.37;;;1.70;;
8540;SDS011;4308;51.294;6.590;2022-12-29T15:56:49;8.57;;;1.73;;
8540;SDS011;4308;51.294;6.590;2022-12-29T15:59:27;4.70;;;1.83;;
8540;SDS011;4308;51.294;6.590;2022-12-29T16:01:55;11.03;;;1.80;;
8540;SDS011;4308;51.294;6.590;2022-12-29T16:04:24;4.37;;;1.70;;
8540;SDS011;4308;51.294;6.590;2022-12-29T16:06:57;4.53;;;1.47;;
8540;SDS011;4308;51.294;6.590;2022-12-29T16:09:29;7.60;;;1.87;;
8540;SDS011;4308;51.294;6.590;2022-12-29T16:12:13;9.47;;;2.47;;
8540;SDS011;4308;51.294;6.590;2022-12-29T16:14:43;5.60;;;1.90;;
8540;SDS011;4308;51.294;6.590;2022-12-29T16:17:12;5.33;;;2.30;;
8540;SDS011;4308;51.294;6.590;2022-12-29T16:19:41;6.43;;;2.13;;
8540;SDS011;4308;51.294;6.590;2022-12-29T16:22:12;7.03;;;2.30;;
8540;SDS011;4308;51.294;6.590;2022-12-29T16:24:42;5.23;;;1.67;;
8540;SDS011;4308;51.294;6.590;2022-12-29T16:27:23;5.40;;;2.00;;
8540;SDS011;4308;51.294;6.590;2022-12-29T16:29:53;8.80;;;1.90;;
8540;SDS011;4308;51.294;6.590;2022-12-29T16:32:28;9.53;;;2.57;;
8540;SDS011;4308;51.294;6.590;2022-12-29T16:35:16;11.13;;;2.10;;
8540;SDS011;4308;51.294;6.590;2022-12-29T16:37:44;8.93;;;2.00;;
8540;SDS011;4308;51.294;6.590;2022-12-29T16:42:46;6.90;;;1.83;;
8540;SDS011;4308;51.294;6.590;2022-12-29T16:47:46;4.77;;;1.70;;
8540;SDS011;4308;51.294;6.590;2022-12-29T16:50:18;5.97;;;1.90;;
8540;SDS011;4308;51.294;6.590;2022-12-29T16:52:54;7.37;;;2.27;;
8540;SDS011;4308;51.294;6.590;2022-12-29T16:55:21;12.57;;;2.30;;
8540;SDS011;4308;51.294;6.590;2022-12-29T16:57:50;9.07;;;1.90;;
8540;SDS011;4308;51.294;6.590;2022-12-29T17:00:29;6.33;;;1.80;;
8540;SDS011;4308;51.294;6.590;2022-12-29T17:02:59;4.97;;;1.60;;
8540;SDS011;4308;51.294;6.590;2022-12-29T17:05:28;7.47;;;1.93;;
8540;SDS011;4308;51.294;6.590;2022-12-29T17:07:55;8.17;;;2.53;;
8540;SDS011;4308;51.294;6.590;2022-12-29T17:10:23;9.07;;;2.30;;
8540;SDS011;4308;51.294;6.590;2022-12-29T17:12:51;9.57;;;2.00;;
8540;SDS011;4308;51.294;6.590;2022-12-29T17:15:25;4.70;;;1.70;;
8540;SDS011;4308;51.294;6.590;2022-12-29T17:17:54;2.57;;;1.17;;
8540;SDS011;4308;51.294;6.590;2022-12-29T17:20:23;3.97;;;1.30;;
8540;SDS011;4308;51.294;6.590;2022-12-29T17:22:52;4.60;;;1.50;;
8540;SDS011;4308;51.294;6.590;2022-12-29T17:25:23;3.17;;;1.33;;
8540;SDS011;4308;51.294;6.590;2022-12-29T17:27:53;6.63;;;2.73;;
8540;SDS011;4308;51.294;6.590;2022-12-29T17:30:24;4.67;;;1.47;;
8540;SDS011;4308;51.294;6.590;2022-12-29T17:33:00;3.83;;;1.20;;
8540;SDS011;4308;51.294;6.590;2022-12-29T17:35:28;2.00;;;1.13;;
8540;SDS011;4308;51.294;6.590;2022-12-29T17:37:56;2.57;;;1.00;;
8540;SDS011;4308;51.294;6.590;2022-12-29T17:40:24;2.23;;;0.80;;
8540;SDS011;4308;51.294;6.590;2022-12-29T17:42:54;2.77;;;0.93;;
8540;SDS011;4308;51.294;6.590;2022-12-29T17:45:23;3.73;;;1.20;;
8540;SDS011;4308;51.294;6.590;2022-12-29T17:47:51;3.40;;;1.27;;